createdAt,value
2023-01-26T00:00:21.471Z,29.99
2023-01-26T00:03:33.234Z,30.17
2023-01-26T00:06:41.074Z,30.92
2023-01-26T00:09:52.335Z,30.47
2023-01-26T00:12:59.322Z,29.57
2023-01-26T00:16:06.931Z,29.46
2023-01-26T00:19:16.462Z,30.39
2023-01-26T00:22:22.644Z,30.58
2023-01-26T00:25:29.603Z,31.68
2023-01-26T00:28:35.673Z,31.22
2023-01-26T00:31:42.607Z,31.53
2023-01-26T00:34:51.427Z,32.05
2023-01-26T00:37:58.278Z,32.16
2023-01-26T00:41:04.508Z,32.90
2023-01-26T00:44:11.528Z,33.99
2023-01-26T00:47:17.897Z,35.52
2023-01-26T00:50:27.437Z,37.16
2023-01-26T00:53:35.927Z,40.70
2023-01-26T00:56:42.798Z,41.47
2023-01-26T00:59:48.886Z,41.70
2023-01-26T01:02:57.408Z,40.68
2023-01-26T01:06:06.402Z,39.09
2023-01-26T01:09:13.460Z,33.68
2023-01-26T01:12:19.856Z,30.48
2023-01-26T01:15:28.595Z,28.09
2023-01-26T01:18:34.669Z,28.93
2023-01-26T01:21:45.714Z,29.74
2023-01-26T01:24:52.699Z,28.38
2023-01-26T01:27:59.666Z,29.64
2023-01-26T01:31:08.954Z,26.72
2023-01-26T01:34:16.022Z,26.50
2023-01-26T01:37:24.732Z,26.65
2023-01-26T01:40:31.788Z,26.55
2023-01-26T01:43:40.000Z,27.50
2023-01-26T01:46:56.847Z,28.05
2023-01-26T01:50:05.174Z,27.10
2023-01-26T01:53:26.081Z,26.42
2023-01-26T01:56:36.607Z,24.99
2023-01-26T01:59:45.857Z,25.68
2023-01-26T02:03:15.170Z,24.81
2023-01-26T02:06:33.055Z,25.67
2023-01-26T02:09:57.693Z,27.22
2023-01-26T02:13:08.913Z,28.57
2023-01-26T02:16:15.391Z,31.71
2023-01-26T02:19:40.268Z,31.63
2023-01-26T02:23:01.828Z,32.87
2023-01-26T02:26:17.223Z,36.47
2023-01-26T02:29:25.867Z,34.89
2023-01-26T02:32:32.209Z,41.67
2023-01-26T02:35:39.280Z,35.82
2023-01-26T02:38:58.454Z,29.69
2023-01-26T02:42:20.872Z,27.68
2023-01-26T02:45:30.719Z,27.80
2023-01-26T02:49:02.102Z,28.23
2023-01-26T02:52:09.550Z,39.07
2023-01-26T02:55:26.556Z,47.78
2023-01-26T02:58:35.430Z,25.26
2023-01-26T03:01:42.330Z,28.66
2023-01-26T03:04:48.561Z,27.77
2023-01-26T03:07:55.614Z,26.79
2023-01-26T03:11:04.901Z,25.82
2023-01-26T03:14:18.523Z,25.87
2023-01-26T03:17:24.710Z,26.01
2023-01-26T03:20:43.986Z,24.98
2023-01-26T03:24:02.528Z,25.82
2023-01-26T03:27:25.903Z,24.84
2023-01-26T03:30:35.534Z,25.18
2023-01-26T03:33:42.867Z,26.25
2023-01-26T03:36:49.661Z,26.50
2023-01-26T03:40:11.320Z,27.01
2023-01-26T03:43:30.363Z,26.39
2023-01-26T03:46:52.279Z,27.38
2023-01-26T03:50:11.774Z,27.00
2023-01-26T03:53:34.793Z,26.98
2023-01-26T03:56:41.111Z,29.23
2023-01-26T03:59:53.292Z,30.97
2023-01-26T04:03:16.527Z,30.19
2023-01-26T04:06:36.053Z,27.38
2023-01-26T04:09:42.587Z,28.68
2023-01-26T04:13:01.864Z,30.31
2023-01-26T04:16:22.385Z,32.67
2023-01-26T04:19:44.302Z,30.45
2023-01-26T04:22:50.491Z,31.78
2023-01-26T04:25:58.221Z,31.76
2023-01-26T04:29:05.449Z,31.38
2023-01-26T04:32:12.896Z,34.24
2023-01-26T04:35:21.770Z,32.71
2023-01-26T04:38:29.071Z,33.35
2023-01-26T04:41:36.661Z,39.97
2023-01-26T04:44:50.071Z,45.83
2023-01-26T04:47:56.852Z,44.10
2023-01-26T04:51:10.100Z,41.45
2023-01-26T04:54:16.589Z,40.95
2023-01-26T04:57:24.902Z,43.02
2023-01-26T05:00:31.790Z,38.19
2023-01-26T05:03:40.374Z,35.70
2023-01-26T05:06:49.126Z,35.43
2023-01-26T05:09:56.065Z,36.40
2023-01-26T05:13:31.322Z,35.39
2023-01-26T05:16:56.514Z,36.30
2023-01-26T05:20:19.853Z,36.92
2023-01-26T05:23:45.357Z,36.55
2023-01-26T05:27:19.466Z,35.95
2023-01-26T05:30:29.308Z,39.03
2023-01-26T05:33:36.337Z,38.55
2023-01-26T05:36:44.271Z,34.02
2023-01-26T05:39:53.014Z,33.83
2023-01-26T05:43:00.657Z,31.73
2023-01-26T05:46:24.766Z,31.27
2023-01-26T05:49:31.994Z,33.33
2023-01-26T05:52:38.984Z,36.81
2023-01-26T05:55:48.958Z,39.03
2023-01-26T05:58:58.926Z,41.62
2023-01-26T06:02:06.649Z,43.35
2023-01-26T06:05:15.284Z,44.93
2023-01-26T06:08:30.909Z,46.97
2023-01-26T06:12:03.076Z,46.42
2023-01-26T06:15:27.091Z,45.84
2023-01-26T06:18:34.618Z,47.61
2023-01-26T06:21:41.785Z,46.22
2023-01-26T06:24:48.150Z,46.20
2023-01-26T06:28:01.364Z,45.79
2023-01-26T06:31:11.930Z,48.46
2023-01-26T06:34:20.214Z,48.69
2023-01-26T06:37:26.618Z,47.05
2023-01-26T06:40:34.112Z,47.20
2023-01-26T06:43:47.682Z,46.18
2023-01-26T06:46:54.976Z,45.22
2023-01-26T06:50:03.038Z,48.10
2023-01-26T06:53:32.760Z,48.97
2023-01-26T06:56:56.161Z,48.15
2023-01-26T07:00:31.839Z,48.70
2023-01-26T07:03:52.994Z,50.75
2023-01-26T07:07:00.492Z,50.65
2023-01-26T07:10:07.695Z,52.79
2023-01-26T07:13:14.674Z,51.49
2023-01-26T07:16:23.475Z,50.40
2023-01-26T07:19:31.609Z,48.95
2023-01-26T07:22:37.701Z,49.91
2023-01-26T07:25:47.170Z,52.51
2023-01-26T07:28:53.266Z,51.97
2023-01-26T07:32:02.843Z,55.57
2023-01-26T07:35:10.910Z,51.35
2023-01-26T07:38:18.551Z,51.43
2023-01-26T07:41:24.610Z,52.35
2023-01-26T07:44:31.611Z,50.95
2023-01-26T07:47:40.641Z,48.27
2023-01-26T07:50:48.806Z,46.99
2023-01-26T07:53:54.920Z,46.53
2023-01-26T07:57:01.952Z,45.97
2023-01-26T08:00:12.754Z,47.13
2023-01-26T08:03:22.538Z,47.23
2023-01-26T08:06:28.830Z,47.43
2023-01-26T08:09:36.316Z,48.71
2023-01-26T08:12:42.419Z,49.63
2023-01-26T08:15:49.434Z,49.68
2023-01-26T08:18:58.106Z,54.03
2023-01-26T08:22:05.091Z,54.51
2023-01-26T08:25:12.798Z,56.04
2023-01-26T08:28:21.196Z,57.29
2023-01-26T08:31:28.520Z,59.30
2023-01-26T08:34:39.428Z,59.24
2023-01-26T08:37:45.533Z,57.61
2023-01-26T08:40:55.964Z,57.44
2023-01-26T08:44:02.248Z,55.50
2023-01-26T08:47:09.234Z,54.31
2023-01-26T08:50:18.232Z,52.96
2023-01-26T08:53:25.466Z,51.54
2023-01-26T08:56:31.540Z,50.85
2023-01-26T08:59:38.302Z,49.09
2023-01-26T09:02:44.379Z,48.19
2023-01-26T09:05:54.068Z,49.65
2023-01-26T09:09:00.473Z,51.88
2023-01-26T09:12:08.506Z,49.01
2023-01-26T09:15:15.172Z,48.66
2023-01-26T09:18:22.304Z,47.43
2023-01-26T09:21:31.134Z,49.36
2023-01-26T09:24:38.062Z,51.97
2023-01-26T09:27:44.886Z,52.05
2023-01-26T09:30:51.904Z,49.68
2023-01-26T09:33:58.051Z,49.86
2023-01-26T09:37:10.013Z,50.60
2023-01-26T09:40:26.248Z,50.05
2023-01-26T09:43:43.298Z,52.04
2023-01-26T09:47:09.205Z,51.57
2023-01-26T09:50:26.180Z,51.65
2023-01-26T09:53:49.696Z,51.70
2023-01-26T09:56:58.946Z,51.57
2023-01-26T10:00:13.346Z,51.32
2023-01-26T10:03:35.759Z,52.18
2023-01-26T10:06:43.181Z,51.36
2023-01-26T10:10:05.536Z,51.31
2023-01-26T10:13:19.836Z,55.06
2023-01-26T10:16:29.491Z,51.86
2023-01-26T10:19:44.048Z,49.91
2023-01-26T10:22:57.882Z,47.91
2023-01-26T10:26:18.036Z,53.51
2023-01-26T10:29:26.464Z,60.38
2023-01-26T10:32:32.629Z,53.58
2023-01-26T10:35:39.762Z,52.60
2023-01-26T10:38:50.136Z,46.93
2023-01-26T10:42:05.791Z,49.72
2023-01-26T10:45:33.471Z,47.64
2023-01-26T10:48:40.407Z,47.46
2023-01-26T10:51:49.570Z,47.72
2023-01-26T10:55:20.356Z,46.86
2023-01-26T10:58:51.707Z,48.38
2023-01-26T11:02:03.850Z,53.84
2023-01-26T11:05:27.194Z,54.42
2023-01-26T11:08:38.456Z,48.65
2023-01-26T11:12:01.353Z,49.86
2023-01-26T11:15:23.283Z,47.49
2023-01-26T11:18:45.507Z,47.90
2023-01-26T11:22:01.775Z,46.96
2023-01-26T11:25:26.037Z,46.94
2023-01-26T11:28:57.649Z,48.02
2023-01-26T11:32:22.264Z,49.22
2023-01-26T11:35:46.354Z,48.17
2023-01-26T11:39:10.765Z,51.63
2023-01-26T11:42:40.126Z,53.94
2023-01-26T11:46:19.597Z,51.55
2023-01-26T11:49:54.465Z,49.53
2023-01-26T11:53:31.051Z,48.08
2023-01-26T11:56:53.451Z,45.54
2023-01-26T12:00:29.093Z,46.67
2023-01-26T12:03:48.459Z,47.82
2023-01-26T12:07:06.860Z,46.49
2023-01-26T12:10:19.189Z,44.90
2023-01-26T12:13:39.290Z,44.65
2023-01-26T12:17:18.028Z,42.96
2023-01-26T12:20:41.543Z,44.53
2023-01-26T12:24:04.132Z,46.43
2023-01-26T12:27:26.907Z,43.07
2023-01-26T12:30:48.030Z,41.80
2023-01-26T12:34:00.117Z,39.73
2023-01-26T12:37:44.657Z,39.75
2023-01-26T12:41:13.795Z,42.46
2023-01-26T12:44:39.941Z,42.02
2023-01-26T12:47:55.934Z,45.32
2023-01-26T12:51:13.008Z,44.61
2023-01-26T12:54:31.114Z,42.50
2023-01-26T12:57:52.202Z,41.92
2023-01-26T13:01:08.251Z,41.12
2023-01-26T13:04:19.793Z,45.37
2023-01-26T13:07:40.263Z,45.48
2023-01-26T13:10:52.965Z,45.94
2023-01-26T13:14:01.734Z,47.65
2023-01-26T13:17:51.444Z,44.06
2023-01-26T13:20:57.647Z,42.91
2023-01-26T13:24:05.033Z,43.92
2023-01-26T13:27:33.510Z,43.43
2023-01-26T13:30:50.614Z,44.12
2023-01-26T13:33:57.184Z,46.91
2023-01-26T13:37:16.241Z,52.08
2023-01-26T13:40:31.223Z,58.62
2023-01-26T13:43:46.709Z,47.58
2023-01-26T13:47:05.037Z,50.31
2023-01-26T13:50:26.709Z,57.25
2023-01-26T13:53:46.742Z,75.42
2023-01-26T13:57:09.110Z,68.30
2023-01-26T14:00:17.490Z,59.11
2023-01-26T14:03:27.584Z,52.69
2023-01-26T14:06:35.530Z,53.54
2023-01-26T14:09:52.888Z,51.03
2023-01-26T14:13:01.446Z,47.89
2023-01-26T14:16:10.935Z,50.38
2023-01-26T14:19:23.443Z,45.62
2023-01-26T14:22:31.228Z,45.99
2023-01-26T14:25:38.079Z,46.00
2023-01-26T14:28:47.100Z,46.46
2023-01-26T14:31:57.925Z,50.83
2023-01-26T14:35:24.263Z,51.31
2023-01-26T14:38:33.293Z,50.94
2023-01-26T14:41:40.842Z,54.31
2023-01-26T14:44:47.282Z,56.76
2023-01-26T14:47:58.529Z,57.41
2023-01-26T14:51:17.275Z,56.78
2023-01-26T14:54:34.098Z,54.74
2023-01-26T14:57:40.625Z,55.26
2023-01-26T15:00:52.283Z,61.07
2023-01-26T15:04:09.463Z,51.29
2023-01-26T15:07:39.153Z,52.81
2023-01-26T15:10:55.955Z,53.83
2023-01-26T15:14:03.162Z,62.31
2023-01-26T15:17:09.794Z,60.60
2023-01-26T15:20:46.129Z,60.74
2023-01-26T15:23:58.572Z,59.21
2023-01-26T15:27:10.563Z,51.67
2023-01-26T15:30:22.308Z,49.36
2023-01-26T15:33:56.206Z,47.95
2023-01-26T15:37:03.908Z,47.48
2023-01-26T15:40:15.663Z,46.35
2023-01-26T15:43:24.078Z,47.26
2023-01-26T15:46:31.455Z,50.18
2023-01-26T15:49:37.697Z,53.62
2023-01-26T15:52:45.161Z,52.47
2023-01-26T15:55:56.479Z,52.23
2023-01-26T15:59:03.610Z,53.07
2023-01-26T16:02:19.566Z,60.35
2023-01-26T16:05:28.271Z,64.36
2023-01-26T16:08:35.107Z,62.64
2023-01-26T16:11:54.168Z,65.12
2023-01-26T16:15:00.587Z,62.06
2023-01-26T16:18:07.815Z,60.72
2023-01-26T16:21:24.134Z,59.01
2023-01-26T16:24:31.227Z,61.07
2023-01-26T16:27:40.170Z,63.74
2023-01-26T16:30:52.566Z,62.63
2023-01-26T16:33:59.695Z,61.42
2023-01-26T16:37:06.869Z,63.82
2023-01-26T16:40:17.445Z,68.56
2023-01-26T16:43:30.984Z,69.06
2023-01-26T16:46:37.247Z,69.16
2023-01-26T16:49:45.751Z,70.17
2023-01-26T16:52:52.437Z,64.30
2023-01-26T16:55:59.941Z,59.91
2023-01-26T16:59:08.904Z,57.76
2023-01-26T17:02:28.771Z,56.57
2023-01-26T17:05:35.230Z,59.18
2023-01-26T17:08:42.975Z,55.89
2023-01-26T17:11:49.057Z,60.73
2023-01-26T17:14:58.666Z,54.96
2023-01-26T17:18:04.816Z,60.99
2023-01-26T17:21:12.000Z,83.06
2023-01-26T17:24:18.154Z,81.07
2023-01-26T17:27:26.073Z,59.40
2023-01-26T17:30:34.861Z,59.64
2023-01-26T17:33:42.909Z,79.73
2023-01-26T17:36:49.126Z,73.07
2023-01-26T17:39:56.283Z,64.73
2023-01-26T17:43:02.493Z,61.60
2023-01-26T17:46:17.119Z,64.60
2023-01-26T17:49:25.247Z,60.21
2023-01-26T17:52:35.579Z,60.89
2023-01-26T17:55:41.768Z,60.53
2023-01-26T17:58:54.049Z,58.76
2023-01-26T18:02:03.097Z,68.43
2023-01-26T18:05:12.655Z,68.60
2023-01-26T18:08:19.324Z,64.89
2023-01-26T18:11:27.697Z,59.73
2023-01-26T18:14:36.227Z,59.11
2023-01-26T18:17:45.850Z,61.75
2023-01-26T18:20:52.017Z,64.04
2023-01-26T18:24:02.699Z,69.05
2023-01-26T18:27:08.877Z,73.09
2023-01-26T18:30:17.245Z,70.53
2023-01-26T18:33:26.022Z,70.11
2023-01-26T18:36:34.309Z,72.13
2023-01-26T18:39:41.073Z,68.94
2023-01-26T18:42:49.518Z,69.71
2023-01-26T18:45:55.718Z,75.39
2023-01-26T18:49:05.420Z,82.68
2023-01-26T18:52:12.840Z,69.91
2023-01-26T18:55:20.458Z,72.75
2023-01-26T18:58:26.534Z,74.23
2023-01-26T19:01:33.634Z,80.08
2023-01-26T19:04:43.562Z,83.97
2023-01-26T19:07:50.640Z,85.82
2023-01-26T19:10:56.799Z,92.11
2023-01-26T19:14:05.346Z,102.56
2023-01-26T19:17:11.530Z,90.13
2023-01-26T19:20:22.671Z,91.51
2023-01-26T19:23:30.141Z,94.73
2023-01-26T19:26:37.622Z,97.00
2023-01-26T19:29:44.071Z,86.56
2023-01-26T19:33:04.659Z,78.75
2023-01-26T19:36:13.984Z,83.60
2023-01-26T19:39:20.964Z,86.13
2023-01-26T19:42:27.165Z,87.08
2023-01-26T19:45:34.789Z,83.60
2023-01-26T19:48:42.288Z,77.24
2023-01-26T19:51:53.530Z,77.94
2023-01-26T19:54:59.805Z,84.90
2023-01-26T19:58:06.690Z,78.35
2023-01-26T20:01:15.760Z,74.49
2023-01-26T20:04:22.962Z,85.98
2023-01-26T20:07:32.039Z,75.90
2023-01-26T20:10:39.019Z,71.21
2023-01-26T20:13:46.243Z,71.66
2023-01-26T20:16:53.399Z,71.24
2023-01-26T20:19:59.880Z,72.18
2023-01-26T20:23:09.980Z,74.59
2023-01-26T20:26:16.215Z,73.32
2023-01-26T20:29:24.466Z,72.67
2023-01-26T20:32:31.082Z,73.29
2023-01-26T20:35:38.187Z,71.03
2023-01-26T20:38:48.336Z,68.30
2023-01-26T20:41:57.417Z,69.12
2023-01-26T20:45:04.076Z,70.38
2023-01-26T20:48:11.651Z,72.54
2023-01-26T20:51:21.870Z,79.73
2023-01-26T20:54:31.547Z,93.12
2023-01-26T20:57:38.316Z,86.31
2023-01-26T21:00:48.006Z,69.45
2023-01-26T21:03:55.435Z,66.98
2023-01-26T21:07:02.544Z,68.53
2023-01-26T21:10:13.417Z,68.76
2023-01-26T21:13:20.734Z,68.96
2023-01-26T21:16:28.610Z,65.77
2023-01-26T21:19:35.707Z,66.97
2023-01-26T21:22:41.963Z,64.70
2023-01-26T21:25:51.684Z,64.83
2023-01-26T21:29:01.347Z,64.72
2023-01-26T21:32:09.250Z,66.02
2023-01-26T21:35:16.880Z,66.95
2023-01-26T21:38:23.866Z,69.51
2023-01-26T21:41:47.631Z,70.46
2023-01-26T21:45:07.175Z,69.98
2023-01-26T21:48:25.744Z,71.97
2023-01-26T21:51:45.862Z,72.49
2023-01-26T21:54:52.036Z,73.40
2023-01-26T21:58:14.044Z,74.33
2023-01-26T22:01:20.413Z,75.02
2023-01-26T22:04:31.339Z,74.62
2023-01-26T22:07:37.638Z,76.36
2023-01-26T22:10:44.716Z,75.87
2023-01-26T22:13:53.552Z,74.52
2023-01-26T22:17:00.665Z,73.57
2023-01-26T22:20:07.632Z,73.06
2023-01-26T22:23:16.120Z,69.82
2023-01-26T22:26:25.939Z,71.09
2023-01-26T22:29:35.651Z,72.33
2023-01-26T22:32:41.904Z,74.27
2023-01-26T22:35:48.843Z,81.83
2023-01-26T22:38:55.558Z,85.84
2023-01-26T22:42:02.556Z,89.75
2023-01-26T22:45:14.210Z,90.42
2023-01-26T22:48:22.058Z,91.06
2023-01-26T22:51:31.167Z,89.96
2023-01-26T22:54:38.150Z,88.73
2023-01-26T22:57:44.311Z,88.98
2023-01-26T23:00:53.883Z,87.36
2023-01-26T23:04:01.758Z,88.97
2023-01-26T23:07:08.770Z,86.99
2023-01-26T23:10:15.255Z,79.63
2023-01-26T23:13:22.303Z,78.45
2023-01-26T23:16:31.800Z,79.22
2023-01-26T23:19:38.757Z,76.51
2023-01-26T23:22:44.927Z,76.42
2023-01-26T23:25:55.300Z,74.62
2023-01-26T23:29:01.344Z,71.62
2023-01-26T23:32:12.396Z,72.87
2023-01-26T23:35:18.811Z,72.85
2023-01-26T23:38:28.941Z,68.23
2023-01-26T23:41:35.012Z,67.48
2023-01-26T23:44:41.992Z,67.10
2023-01-26T23:47:52.158Z,66.00
2023-01-26T23:51:00.297Z,68.32
2023-01-26T23:54:06.556Z,68.72
2023-01-26T23:57:13.711Z,69.53
